Time;durP1;ratioP1;P1;durP2;ratioP2;P2;SDS_P1;SDS_P2;PMS_P1;PMS_P2;Temp;Humidity;BMP_temperature;BMP_pressure;BME280_temperature;BME280_humidity;BME280_pressure;Samples;Min_cycle;Max_cycle;Signal;HPM_P1;HPM_P2
2022/11/20 00:01:12;;;;;;;;;;;16.50;38.70;15.20;100931.00;;;;5054130;28;19963;-66
2022/11/20 00:03:38;;;;;;;;;;;16.50;38.70;15.20;100927.00;;;;5045559;28;19913;-66
2022/11/20 00:06:06;;;;;;;;;;;16.50;38.70;15.20;100927.00;;;;5066044;28;19919;-66
2022/11/20 00:08:32;;;;;;;;;;;16.50;38.70;15.10;100919.00;;;;5046115;28;19919;-66
2022/11/20 00:10:57;;;;;;;;;;;16.50;38.70;15.20;100920.00;;;;5048078;28;19912;-66
2022/11/20 00:13:23;;;;;;;;;;;16.50;38.70;15.10;100923.00;;;;5054387;28;19913;-66
2022/11/20 00:15:49;;;;;;;;;;;16.50;38.70;15.10;100925.00;;;;5068544;28;19913;-66
2022/11/20 00:18:14;;;;;;;;;;;16.50;38.70;15.10;100928.00;;;;5068972;28;20278;-66
2022/11/20 00:20:40;;;;;;;;;;;16.50;38.70;15.10;100919.00;;;;5069274;28;19928;-66
2022/11/20 00:23:06;;;;;;;;;;;16.50;38.70;15.10;100925.00;;;;5071404;28;19916;-66
2022/11/20 00:25:34;;;;;;;;;;;16.50;38.70;15.10;100926.00;;;;5069719;28;19913;-66
2022/11/20 00:28:00;;;;;;;;;;;16.50;38.70;15.10;100925.00;;;;5071166;28;19920;-66
2022/11/20 00:30:25;;;;;;;;;;;16.50;38.70;15.10;100913.00;;;;5064915;28;19916;-66
2022/11/20 00:32:51;;;;;;;;;;;16.40;38.60;15.10;100909.00;;;;5070496;28;19958;-66
2022/11/20 00:35:17;;;;;;;;;;;16.50;38.70;15.10;100910.00;;;;5065646;28;20240;-66
2022/11/20 00:37:42;;;;;;;;;;;16.40;38.60;15.10;100908.00;;;;5067756;28;19912;-66
2022/11/20 00:40:08;;;;;;;;;;;16.40;38.60;15.10;100900.00;;;;5067721;28;19966;-66
2022/11/20 00:42:34;;;;;;;;;;;16.40;38.60;15.10;100914.00;;;;5067025;28;19931;-66
2022/11/20 00:45:00;;;;;;;;;;;16.40;38.70;15.10;100913.00;;;;5053400;28;19944;-66
2022/11/20 00:47:25;;;;;;;;;;;16.50;38.70;15.10;100916.00;;;;5048643;28;19920;-66
2022/11/20 00:49:51;;;;;;;;;;;16.40;38.60;15.00;100925.00;;;;5063610;28;19916;-66
2022/11/20 00:52:17;;;;;;;;;;;16.40;38.60;15.00;100924.00;;;;5060788;28;19920;-66
2022/11/20 00:54:42;;;;;;;;;;;16.40;38.60;15.00;100927.00;;;;5069342;28;20266;-66
2022/11/20 00:57:08;;;;;;;;;;;16.40;38.60;15.00;100917.00;;;;5064802;28;19913;-66
2022/11/20 00:59:34;;;;;;;;;;;16.40;38.60;15.00;100922.00;;;;5065343;28;19953;-66
2022/11/20 01:01:59;;;;;;;;;;;16.40;38.60;15.00;100916.00;;;;5062541;28;20542;-66
2022/11/20 01:04:25;;;;;;;;;;;16.40;38.60;15.00;100914.00;;;;5065158;28;19913;-66
2022/11/20 01:06:51;;;;;;;;;;;16.40;38.60;15.00;100911.00;;;;5064434;28;19920;-66
2022/11/20 01:09:16;;;;;;;;;;;16.50;38.60;15.00;100916.00;;;;5069610;28;20361;-66
2022/11/20 01:11:43;;;;;;;;;;;16.40;39.30;15.00;100910.00;;;;5050931;28;19916;-66
2022/11/20 01:14:16;;;;;;;;;;;16.40;38.60;15.00;100916.00;;;;5064895;28;20003;-66
2022/11/20 01:16:44;;;;;;;;;;;16.40;38.60;15.00;100910.00;;;;5052560;28;19913;-66
2022/11/20 01:19:12;;;;;;;;;;;16.40;38.60;15.00;100910.00;;;;5063494;28;19955;-66
2022/11/20 01:21:39;;;;;;;;;;;16.40;38.60;15.00;100912.00;;;;5052045;28;20372;-66
2022/11/20 01:24:05;;;;;;;;;;;16.40;38.50;15.00;100920.00;;;;5066041;28;19912;-66
2022/11/20 01:26:32;;;;;;;;;;;16.30;38.50;15.00;100914.00;;;;5047060;28;19912;-66
2022/11/20 01:28:58;;;;;;;;;;;16.40;38.50;15.00;100908.00;;;;5047795;28;19916;-66
2022/11/20 01:31:34;;;;;;;;;;;16.30;38.50;15.00;100889.00;;;;5044466;28;19923;-66
2022/11/20 01:34:03;;;;;;;;;;;16.40;38.50;15.00;100886.00;;;;5068095;28;20009;-66
2022/11/20 01:36:29;;;;;;;;;;;16.40;38.60;15.00;100893.00;;;;5063916;28;20035;-66
2022/11/20 01:38:56;;;;;;;;;;;16.40;38.50;15.00;100875.00;;;;5049756;28;19922;-66
2022/11/20 01:44:06;;;;;;;;;;;16.40;38.50;14.90;100868.00;;;;5062332;28;19923;-66
2022/11/20 01:46:33;;;;;;;;;;;16.30;38.50;14.90;100869.00;;;;5062797;28;19912;-66
2022/11/20 01:49:16;;;;;;;;;;;16.30;38.50;14.90;100873.00;;;;5049872;28;19998;-66
2022/11/20 01:51:45;;;;;;;;;;;16.30;38.50;14.90;100871.00;;;;5050068;28;20361;-66
2022/11/20 01:54:15;;;;;;;;;;;16.30;38.50;14.90;100877.00;;;;5048836;28;20298;-66
2022/11/20 01:56:41;;;;;;;;;;;16.30;38.50;14.90;100868.00;;;;5049603;28;19917;-66
2022/11/20 01:59:07;;;;;;;;;;;16.40;38.50;14.90;100858.00;;;;5053105;28;19959;-66
2022/11/20 02:01:33;;;;;;;;;;;16.30;38.50;14.90;100863.00;;;;5051711;28;19920;-66
2022/11/20 02:03:59;;;;;;;;;;;16.30;38.50;14.90;100863.00;;;;5063116;28;19913;-66
2022/11/20 02:06:32;;;;;;;;;;;16.30;38.40;14.90;100855.00;;;;5047438;28;19958;-66
2022/11/20 02:08:58;;;;;;;;;;;16.30;38.40;14.90;100846.00;;;;5053548;28;19919;-66
2022/11/20 02:11:23;;;;;;;;;;;16.30;38.50;14.90;100850.00;;;;5061076;28;20386;-66
2022/11/20 02:13:49;;;;;;;;;;;16.30;38.40;14.90;100836.00;;;;5064353;28;19958;-66
2022/11/20 02:16:25;;;;;;;;;;;16.30;39.10;14.90;100837.00;;;;5065700;28;19912;-66
2022/11/20 02:18:51;;;;;;;;;;;16.30;38.40;14.90;100846.00;;;;5052130;28;20030;-66
2022/11/20 02:21:38;;;;;;;;;;;16.30;38.40;14.90;100857.00;;;;5046140;28;19952;-66
2022/11/20 02:24:14;;;;;;;;;;;16.30;38.40;14.90;100853.00;;;;5071476;28;20392;-66
2022/11/20 02:26:41;;;;;;;;;;;16.30;38.40;14.90;100856.00;;;;5034987;28;19916;-66
2022/11/20 02:29:07;;;;;;;;;;;16.20;38.40;14.90;100850.00;;;;5051589;28;20388;-66
2022/11/20 02:31:41;;;;;;;;;;;16.30;38.40;14.80;100863.00;;;;5064187;28;19913;-66
2022/11/20 02:34:06;;;;;;;;;;;16.30;38.40;14.80;100851.00;;;;5048823;28;19919;-66
2022/11/20 02:36:32;;;;;;;;;;;16.20;38.30;14.80;100861.00;;;;5064083;28;19935;-66
2022/11/20 02:38:58;;;;;;;;;;;16.20;38.30;14.80;100854.00;;;;5071076;28;19947;-66
2022/11/20 02:41:31;;;;;;;;;;;16.20;38.30;14.80;100851.00;;;;5051921;28;19973;-66
2022/11/20 02:43:57;;;;;;;;;;;16.30;38.40;14.80;100848.00;;;;5067294;28;19938;-66
2022/11/20 02:46:22;;;;;;;;;;;16.20;38.40;14.80;100851.00;;;;5061251;28;19912;-66
2022/11/20 02:48:48;;;;;;;;;;;16.20;38.30;14.80;100855.00;;;;5069707;28;19939;-66
2022/11/20 02:51:14;;;;;;;;;;;16.20;38.30;14.80;100856.00;;;;5066751;28;19919;-66
2022/11/20 02:53:39;;;;;;;;;;;16.20;38.30;14.80;100855.00;;;;5068417;28;20194;-66
2022/11/20 02:56:06;;;;;;;;;;;16.20;38.30;14.80;100859.00;;;;5065764;28;20328;-66
2022/11/20 02:58:32;;;;;;;;;;;16.20;38.30;14.80;100859.00;;;;5049769;28;20005;-66
2022/11/20 03:00:57;;;;;;;;;;;16.20;38.30;14.80;100854.00;;;;5047161;28;20282;-66
2022/11/20 03:03:23;;;;;;;;;;;16.20;39.00;14.80;100859.00;;;;5066288;28;20309;-66
2022/11/20 03:05:49;;;;;;;;;;;16.20;38.30;14.80;100862.00;;;;5067202;28;19946;-66
2022/11/20 03:08:14;;;;;;;;;;;16.20;38.30;14.80;100851.00;;;;5062905;28;19912;-66
2022/11/20 03:10:40;;;;;;;;;;;16.20;39.00;14.80;100854.00;;;;5065496;28;20289;-66
2022/11/20 03:13:05;;;;;;;;;;;16.20;38.30;14.80;100848.00;;;;5047632;28;19909;-66
2022/11/20 03:15:31;;;;;;;;;;;16.20;38.30;14.80;100849.00;;;;5067411;28;19967;-66
2022/11/20 03:17:57;;;;;;;;;;;16.20;38.30;14.80;100844.00;;;;5050181;28;20251;-66
2022/11/20 03:20:23;;;;;;;;;;;16.20;38.30;14.80;100843.00;;;;5049012;28;19913;-66
2022/11/20 03:22:48;;;;;;;;;;;16.20;38.30;14.80;100846.00;;;;5069200;28;19923;-66
2022/11/20 03:25:14;;;;;;;;;;;16.20;38.30;14.80;100839.00;;;;5072686;28;19908;-66
2022/11/20 03:27:39;;;;;;;;;;;16.10;38.20;14.70;100834.00;;;;5066600;28;20445;-66
2022/11/20 03:30:06;;;;;;;;;;;16.20;38.20;14.70;100836.00;;;;5068557;28;19970;-66
2022/11/20 03:32:32;;;;;;;;;;;16.10;38.20;14.70;100831.00;;;;5047547;28;19912;-66
2022/11/20 03:34:57;;;;;;;;;;;16.10;38.20;14.70;100824.00;;;;5055915;28;19938;-66
2022/11/20 03:37:23;;;;;;;;;;;16.20;38.20;14.70;100823.00;;;;5055026;28;20266;-66
2022/11/20 03:39:49;;;;;;;;;;;16.10;38.90;14.70;100825.00;;;;5053097;28;19917;-66
2022/11/20 03:44:59;;;;;;;;;;;16.10;38.20;14.70;100818.00;;;;5067901;28;19935;-66
2022/11/20 03:47:24;;;;;;;;;;;16.10;38.20;14.70;100809.00;;;;5062099;28;19913;-66
2022/11/20 03:49:50;;;;;;;;;;;16.10;38.20;14.70;100807.00;;;;5054911;28;20293;-66
2022/11/20 03:52:16;;;;;;;;;;;16.10;38.20;14.70;100803.00;;;;5062413;28;19913;-66
2022/11/20 03:54:41;;;;;;;;;;;16.10;38.20;14.70;100805.00;;;;5065261;28;20345;-66
2022/11/20 03:57:07;;;;;;;;;;;16.10;38.10;14.70;100811.00;;;;5063104;28;19924;-66
2022/11/20 03:59:32;;;;;;;;;;;16.10;38.20;14.70;100807.00;;;;5051357;28;20358;-66
2022/11/20 04:01:58;;;;;;;;;;;16.10;38.20;14.70;100803.00;;;;5053799;28;19923;-66
2022/11/20 04:04:24;;;;;;;;;;;16.10;38.10;14.70;100800.00;;;;5068189;28;19908;-66
2022/11/20 04:06:50;;;;;;;;;;;16.10;38.10;14.70;100800.00;;;;5064583;28;19916;-66
2022/11/20 04:09:16;;;;;;;;;;;16.10;38.20;14.70;100798.00;;;;5053443;28;19957;-66
2022/11/20 04:11:41;;;;;;;;;;;16.00;38.10;14.70;100796.00;;;;5065925;28;19912;-66
2022/11/20 04:14:12;;;;;;;;;;;16.00;38.10;14.70;100801.00;;;;5063057;28;19978;-66
2022/11/20 04:16:38;;;;;;;;;;;16.00;38.10;14.70;100801.00;;;;5066576;28;20319;-66
2022/11/20 04:19:05;;;;;;;;;;;16.00;38.10;14.70;100805.00;;;;5066224;28;19915;-66
2022/11/20 04:21:31;;;;;;;;;;;16.10;38.10;14.70;100804.00;;;;5063443;28;20007;-66
2022/11/20 04:23:56;;;;;;;;;;;16.00;38.10;14.60;100803.00;;;;5068206;28;19919;-66
2022/11/20 04:26:23;;;;;;;;;;;16.00;38.10;14.60;100802.00;;;;5044243;28;19913;-66
2022/11/20 04:28:49;;;;;;;;;;;16.10;38.20;14.60;100813.00;;;;5049136;28;19909;-66
2022/11/20 04:31:19;;;;;;;;;;;16.10;38.20;14.60;100809.00;;;;5063507;28;19937;-66
2022/11/20 04:33:44;;;;;;;;;;;16.10;38.10;14.60;100802.00;;;;5047977;28;19912;-66
2022/11/20 04:36:11;;;;;;;;;;;16.00;38.10;14.60;100804.00;;;;5064842;28;19934;-66
2022/11/20 04:38:37;;;;;;;;;;;16.00;38.10;14.60;100801.00;;;;5026191;28;20270;-66
2022/11/20 04:41:05;;;;;;;;;;;16.00;38.10;14.60;100808.00;;;;5068201;28;19913;-66
2022/11/20 04:43:31;;;;;;;;;;;16.00;38.10;14.60;100812.00;;;;5045909;28;19913;-66
2022/11/20 04:45:57;;;;;;;;;;;16.00;38.10;14.60;100800.00;;;;5047266;28;20202;-66
2022/11/20 04:48:23;;;;;;;;;;;16.00;38.10;14.60;100797.00;;;;5068417;28;20278;-66
2022/11/20 04:50:48;;;;;;;;;;;16.00;38.00;14.60;100794.00;;;;5048986;28;19913;-66
2022/11/20 04:53:14;;;;;;;;;;;16.00;38.00;14.60;100804.00;;;;5067530;28;19912;-66
2022/11/20 04:55:40;;;;;;;;;;;16.00;38.10;14.60;100793.00;;;;5068706;28;20296;-66
2022/11/20 04:58:05;;;;;;;;;;;16.00;38.00;14.60;100796.00;;;;5064439;28;19912;-66
2022/11/20 05:00:31;;;;;;;;;;;16.00;38.00;14.60;100793.00;;;;5065422;28;19963;-66
2022/11/20 05:02:57;;;;;;;;;;;16.00;38.00;14.60;100791.00;;;;5052139;28;19990;-66
2022/11/20 05:05:22;;;;;;;;;;;16.00;38.00;14.60;100792.00;;;;5066894;28;19912;-66
2022/11/20 05:07:48;;;;;;;;;;;16.00;38.10;14.50;100792.00;;;;5051044;28;19912;-66
2022/11/20 05:10:14;;;;;;;;;;;16.00;38.00;14.50;100791.00;;;;5068531;28;19923;-66
2022/11/20 05:12:40;;;;;;;;;;;15.90;38.00;14.50;100797.00;;;;5065096;28;19993;-66
2022/11/20 05:15:05;;;;;;;;;;;15.90;38.00;14.50;100791.00;;;;5066525;28;20296;-66
2022/11/20 05:17:31;;;;;;;;;;;16.00;38.00;14.50;100785.00;;;;5051611;28;20353;-66
2022/11/20 05:19:57;;;;;;;;;;;16.00;38.00;14.50;100783.00;;;;5069615;28;19912;-66
2022/11/20 05:22:22;;;;;;;;;;;16.00;38.00;14.50;100787.00;;;;5066743;28;19921;-66
2022/11/20 05:24:48;;;;;;;;;;;16.00;38.00;14.50;100779.00;;;;5049288;28;19912;-66
2022/11/20 05:27:14;;;;;;;;;;;15.90;38.00;14.50;100782.00;;;;5048226;28;20225;-66
2022/11/20 05:29:39;;;;;;;;;;;15.90;37.90;14.50;100773.00;;;;5045318;28;19916;-66
2022/11/20 05:32:07;;;;;;;;;;;15.90;37.90;14.50;100767.00;;;;5066603;28;19913;-66
2022/11/20 05:34:32;;;;;;;;;;;15.90;37.90;14.50;100769.00;;;;5064964;28;19908;-66
2022/11/20 05:36:58;;;;;;;;;;;15.90;37.90;14.50;100765.00;;;;5065110;28;19912;-66
2022/11/20 05:39:24;;;;;;;;;;;15.90;37.90;14.50;100777.00;;;;5065440;28;19913;-66
2022/11/20 05:42:29;;;;;;;;;;;15.90;37.90;14.50;100770.00;;;;5050643;28;19920;-66
2022/11/20 05:44:35;;;;;;;;;;;15.90;37.90;14.50;100780.00;;;;5055560;28;19915;-66
2022/11/20 05:47:01;;;;;;;;;;;15.90;37.90;14.50;100777.00;;;;5067873;28;20350;-66
2022/11/20 05:49:26;;;;;;;;;;;15.90;37.90;14.50;100772.00;;;;5065341;28;19920;-66
2022/11/20 05:51:52;;;;;;;;;;;15.90;37.90;14.50;100776.00;;;;5060138;28;19913;-66
2022/11/20 05:54:18;;;;;;;;;;;16.00;38.00;14.50;100766.00;;;;5065969;28;20350;-66
2022/11/20 05:56:43;;;;;;;;;;;15.90;37.90;14.50;100766.00;;;;5063759;28;19913;-66
2022/11/20 05:59:09;;;;;;;;;;;16.10;38.00;14.50;100768.00;;;;5065597;28;19916;-66
2022/11/20 06:01:35;;;;;;;;;;;15.90;37.80;14.50;100766.00;;;;5063564;28;19913;-66
2022/11/20 06:04:16;;;;;;;;;;;15.90;37.80;14.50;100774.00;;;;5065086;28;19919;-66
2022/11/20 06:06:42;;;;;;;;;;;15.90;37.80;14.50;100768.00;;;;5063146;28;19966;-66
2022/11/20 06:09:08;;;;;;;;;;;15.90;37.80;14.50;100763.00;;;;5069142;28;19908;-66
2022/11/20 06:11:33;;;;;;;;;;;15.90;37.80;14.50;100768.00;;;;5063849;28;19913;-66
2022/11/20 06:13:59;;;;;;;;;;;15.90;37.80;14.50;100773.00;;;;5066448;28;19958;-66
2022/11/20 06:16:25;;;;;;;;;;;16.00;37.90;14.50;100771.00;;;;5064223;28;19923;-66
2022/11/20 06:18:50;;;;;;;;;;;15.90;37.80;14.50;100775.00;;;;5045717;28;20342;-66
2022/11/20 06:21:17;;;;;;;;;;;15.90;37.80;14.50;100761.00;;;;5067944;28;19920;-66
2022/11/20 06:23:43;;;;;;;;;;;15.90;37.90;14.50;100772.00;;;;5064101;28;19917;-67
2022/11/20 06:26:10;;;;;;;;;;;15.90;37.80;14.50;100779.00;;;;5065877;28;20286;-66
2022/11/20 06:28:36;;;;;;;;;;;15.90;37.80;14.50;100781.00;;;;5063041;28;19924;-66
2022/11/20 06:31:02;;;;;;;;;;;15.90;37.80;14.50;100782.00;;;;5044632;28;20335;-66
2022/11/20 06:33:27;;;;;;;;;;;15.90;37.80;14.50;100785.00;;;;5049018;28;20010;-66
2022/11/20 06:35:56;;;;;;;;;;;15.90;37.80;14.50;100773.00;;;;5068215;28;19924;-66
2022/11/20 06:38:22;;;;;;;;;;;15.90;37.80;14.50;100783.00;;;;5049594;28;20136;-66
2022/11/20 06:40:47;;;;;;;;;;;15.90;37.80;14.50;100780.00;;;;5062134;28;20477;-66
2022/11/20 06:43:13;;;;;;;;;;;15.90;37.80;14.50;100797.00;;;;5066912;28;19916;-66
2022/11/20 06:45:39;;;;;;;;;;;15.90;37.80;14.50;100800.00;;;;5064038;28;19924;-67
2022/11/20 06:48:04;;;;;;;;;;;15.90;37.70;14.50;100800.00;;;;5065718;28;20384;-66
2022/11/20 06:50:30;;;;;;;;;;;15.90;37.80;14.50;100805.00;;;;5063264;28;20003;-66
2022/11/20 06:52:56;;;;;;;;;;;15.90;37.80;14.50;100802.00;;;;5053450;28;19977;-66
2022/11/20 06:55:21;;;;;;;;;;;15.90;37.70;14.50;100799.00;;;;5063553;28;19916;-66
2022/11/20 06:57:47;;;;;;;;;;;15.90;37.80;14.50;100794.00;;;;5061763;28;19913;-66
2022/11/20 07:00:13;;;;;;;;;;;15.90;37.70;14.50;100796.00;;;;5044900;28;19935;-66
2022/11/20 07:02:39;;;;;;;;;;;15.90;37.70;14.50;100798.00;;;;5049623;28;19921;-66
2022/11/20 07:05:05;;;;;;;;;;;15.90;37.70;14.50;100803.00;;;;5050281;28;19920;-66
2022/11/20 07:07:30;;;;;;;;;;;15.90;37.70;14.50;100791.00;;;;5068569;28;19955;-66
2022/11/20 07:09:56;;;;;;;;;;;15.90;37.70;14.40;100797.00;;;;5067979;28;20243;-66
2022/11/20 07:12:21;;;;;;;;;;;15.90;37.70;14.40;100794.00;;;;5050103;28;19990;-66
2022/11/20 07:14:47;;;;;;;;;;;15.90;37.70;14.40;100783.00;;;;5051580;28;19916;-66
2022/11/20 07:17:13;;;;;;;;;;;15.90;37.70;14.50;100790.00;;;;5058192;28;20370;-66
2022/11/20 07:19:39;;;;;;;;;;;15.90;37.70;14.40;100776.00;;;;5048566;28;19919;-66
2022/11/20 07:22:04;;;;;;;;;;;15.80;37.70;14.40;100776.00;;;;5066357;28;19921;-66
2022/11/20 07:24:30;;;;;;;;;;;15.90;37.70;14.50;100786.00;;;;5066008;28;19973;-67
2022/11/20 07:26:56;;;;;;;;;;;15.90;37.70;14.50;100780.00;;;;5062668;28;20274;-66
2022/11/20 07:29:21;;;;;;;;;;;15.90;37.70;14.50;100786.00;;;;5048335;28;19912;-66
2022/11/20 07:31:47;;;;;;;;;;;15.90;37.70;14.40;100784.00;;;;5065301;28;19920;-66
2022/11/20 07:34:13;;;;;;;;;;;15.90;38.30;14.50;100790.00;;;;5066139;28;19908;-66
2022/11/20 07:36:38;;;;;;;;;;;15.90;37.60;14.50;100788.00;;;;5047932;28;19959;-66
2022/11/20 07:39:04;;;;;;;;;;;15.90;37.60;14.50;100790.00;;;;5050706;28;19949;-66
2022/11/20 07:41:30;;;;;;;;;;;15.90;37.60;14.50;100789.00;;;;5064825;28;19917;-66
2022/11/20 07:43:56;;;;;;;;;;;15.90;37.70;14.40;100785.00;;;;5065964;28;19912;-66
2022/11/20 07:46:23;;;;;;;;;;;15.90;37.60;14.40;100780.00;;;;5028878;28;20016;-66
2022/11/20 07:48:49;;;;;;;;;;;15.90;37.60;14.50;100784.00;;;;5053721;28;20361;-66
2022/11/20 07:51:14;;;;;;;;;;;16.00;37.60;14.50;100773.00;;;;5075891;28;19913;-67
2022/11/20 07:53:40;;;;;;;;;;;15.90;37.60;14.50;100772.00;;;;5036070;28;19925;-66
2022/11/20 07:56:06;;;;;;;;;;;15.90;37.60;14.40;100767.00;;;;5043197;28;19912;-67
2022/11/20 07:58:32;;;;;;;;;;;15.90;37.50;14.40;100766.00;;;;5066646;28;20261;-66
2022/11/20 08:01:03;;;;;;;;;;;15.90;37.30;14.20;100759.00;;;;5065508;28;19912;-66
2022/11/20 08:03:28;;;;;;;;;;;15.90;37.10;14.10;100763.00;;;;5069425;28;19969;-66
2022/11/20 08:05:54;;;;;;;;;;;15.80;36.80;14.00;100765.00;;;;5048187;28;19928;-66
2022/11/20 08:08:21;;;;;;;;;;;15.70;36.70;13.90;100764.00;;;;5069263;28;19931;-66
2022/11/20 08:10:46;;;;;;;;;;;15.70;36.60;13.80;100773.00;;;;5062732;28;20030;-66
2022/11/20 08:15:57;;;;;;;;;;;15.40;36.50;13.50;100772.00;;;;5054958;28;19923;-66
2022/11/20 08:18:22;;;;;;;;;;;15.30;36.50;13.40;100775.00;;;;5067666;28;19912;-66
2022/11/20 08:20:48;;;;;;;;;;;15.10;36.50;13.30;100769.00;;;;5064459;28;19927;-66
2022/11/20 08:23:14;;;;;;;;;;;15.00;36.50;13.20;100771.00;;;;5068500;28;19913;-66
2022/11/20 08:25:39;;;;;;;;;;;14.90;36.50;13.00;100772.00;;;;5069353;28;20290;-66
2022/11/20 08:28:07;;;;;;;;;;;14.80;36.50;13.00;100767.00;;;;5063665;28;19908;-66
2022/11/20 08:30:32;;;;;;;;;;;14.80;36.70;13.00;100758.00;;;;5050384;28;19912;-66
2022/11/20 08:33:06;;;;;;;;;;;14.60;36.80;13.10;100757.00;;;;5067793;28;19958;-66
2022/11/20 08:35:35;;;;;;;;;;;14.50;37.10;13.10;100757.00;;;;5052311;28;19912;-66
2022/11/20 08:38:02;;;;;;;;;;;14.50;37.20;13.20;100760.00;;;;5050782;28;20404;-66
2022/11/20 08:40:28;;;;;;;;;;;14.50;37.40;13.30;100774.00;;;;5046541;28;19912;-66
2022/11/20 08:42:53;;;;;;;;;;;14.50;37.50;13.40;100779.00;;;;5069785;28;20401;-66
2022/11/20 08:45:19;;;;;;;;;;;14.60;37.60;13.40;100784.00;;;;5066073;28;19913;-66
2022/11/20 08:47:45;;;;;;;;;;;14.60;37.60;13.50;100784.00;;;;5057686;28;19913;-66
2022/11/20 08:50:12;;;;;;;;;;;14.70;37.70;13.60;100790.00;;;;5051493;28;19955;-66
2022/11/20 08:52:38;;;;;;;;;;;14.80;37.80;13.60;100779.00;;;;5048209;28;19974;-66
2022/11/20 08:55:04;;;;;;;;;;;14.80;37.80;13.70;100779.00;;;;5067796;28;19944;-66
2022/11/20 08:57:33;;;;;;;;;;;14.90;37.80;13.70;100777.00;;;;5069269;28;19913;-66
2022/11/20 08:59:59;;;;;;;;;;;15.00;37.80;13.80;100778.00;;;;5059563;28;19920;-66
2022/11/20 09:02:25;;;;;;;;;;;15.00;37.80;13.80;100784.00;;;;5066126;28;19923;-66
2022/11/20 09:04:50;;;;;;;;;;;15.10;37.60;13.80;100785.00;;;;5062181;28;19943;-66
2022/11/20 09:07:16;;;;;;;;;;;15.10;37.60;13.80;100794.00;;;;5063598;28;19913;-66
2022/11/20 09:09:43;;;;;;;;;;;15.20;37.60;13.80;100779.00;;;;5051725;28;19913;-66
2022/11/20 09:12:09;;;;;;;;;;;15.20;37.60;13.90;100781.00;;;;5064383;28;19913;-66
2022/11/20 09:14:34;;;;;;;;;;;15.20;37.60;13.90;100780.00;;;;5053638;28;19919;-66
2022/11/20 09:17:00;;;;;;;;;;;15.30;37.70;13.90;100771.00;;;;5064787;28;19921;-66
2022/11/20 09:19:26;;;;;;;;;;;15.30;37.70;13.90;100763.00;;;;5063723;28;19912;-66
2022/11/20 09:21:51;;;;;;;;;;;15.30;37.60;14.00;100769.00;;;;5063898;28;20332;-67
2022/11/20 09:24:17;;;;;;;;;;;15.30;37.70;14.00;100765.00;;;;5046843;28;19920;-66
2022/11/20 09:26:43;;;;;;;;;;;15.40;37.60;13.90;100759.00;;;;5051413;28;19916;-66
2022/11/20 09:29:09;;;;;;;;;;;15.50;37.40;13.70;100756.00;;;;5070717;28;20018;-66
2022/11/20 09:31:34;;;;;;;;;;;15.40;37.10;13.60;100742.00;;;;5063094;28;19947;-66
2022/11/20 09:34:00;;;;;;;;;;;15.30;37.00;13.40;100748.00;;;;5066527;28;19920;-66
2022/11/20 09:36:26;;;;;;;;;;;15.20;37.00;13.30;100750.00;;;;5063693;28;19920;-66
2022/11/20 09:38:52;;;;;;;;;;;15.10;37.00;13.40;100758.00;;;;5066493;28;19946;-66
2022/11/20 09:42:04;;;;;;;;;;;15.00;37.10;13.40;100751.00;;;;5065060;28;20147;-66
2022/11/20 09:44:41;;;;;;;;;;;15.00;37.30;13.50;100760.00;;;;4967730;28;20014;-66
2022/11/20 09:47:15;;;;;;;;;;;14.90;37.50;13.50;100751.00;;;;4969783;28;19959;-66
2022/11/20 09:49:50;;;;;;;;;;;14.90;37.60;13.60;100743.00;;;;5026352;28;20358;-66
2022/11/20 09:52:30;;;;;;;;;;;14.90;37.70;13.60;100732.00;;;;5061724;28;20178;-66
2022/11/20 09:54:56;;;;;;;;;;;15.00;37.80;13.70;100741.00;;;;5066203;28;20013;-66
2022/11/20 09:57:25;;;;;;;;;;;15.00;37.90;13.70;100743.00;;;;5046339;28;19916;-66
2022/11/20 09:59:58;;;;;;;;;;;15.00;37.80;13.70;100736.00;;;;5062387;28;19970;-67
2022/11/20 10:02:24;;;;;;;;;;;15.10;37.80;13.60;100734.00;;;;5064551;28;20295;-66
2022/11/20 10:05:09;;;;;;;;;;;15.10;37.70;13.60;100733.00;;;;5067936;28;19920;-66
2022/11/20 10:07:56;;;;;;;;;;;15.10;37.70;13.50;100729.00;;;;5065223;28;19912;-66
2022/11/20 10:10:49;;;;;;;;;;;15.00;37.60;13.40;100724.00;;;;5063103;28;20010;-66
2022/11/20 10:13:36;;;;;;;;;;;15.00;37.60;13.20;100725.00;;;;5045755;28;20049;-66
2022/11/20 10:16:10;;;;;;;;;;;14.90;37.50;13.10;100721.00;;;;5045413;28;20309;-66
2022/11/20 10:18:52;;;;;;;;;;;14.80;37.40;12.90;100735.00;;;;5051944;28;19939;-66
2022/11/20 10:21:35;;;;;;;;;;;14.70;37.40;12.70;100729.00;;;;5065115;28;20356;-66
2022/11/20 10:24:34;;;;;;;;;;;14.60;37.30;12.70;100726.00;;;;5050343;28;20023;-67
2022/11/20 10:27:35;;;;;;;;;;;14.40;37.50;12.80;100725.00;;;;5064622;28;20362;-66
2022/11/20 10:30:15;;;;;;;;;;;14.30;37.70;12.80;100721.00;;;;5051231;28;20354;-66
2022/11/20 10:32:43;;;;;;;;;;;14.30;38.00;12.90;100721.00;;;;5066576;28;19920;-66
2022/11/20 10:35:38;;;;;;;;;;;14.30;38.20;13.10;100722.00;;;;5071417;28;19955;-67
2022/11/20 10:38:07;;;;;;;;;;;14.30;38.30;13.20;100717.00;;;;5057146;28;19912;-66
2022/11/20 10:40:48;;;;;;;;;;;14.40;38.40;13.30;100707.00;;;;5055511;28;20350;-66
2022/11/20 10:43:27;;;;;;;;;;;14.40;38.40;13.30;100714.00;;;;5068914;28;20424;-66
2022/11/20 10:46:01;;;;;;;;;;;14.50;38.40;13.40;100722.00;;;;5052129;28;19913;-66
2022/11/20 10:48:27;;;;;;;;;;;14.60;38.50;13.50;100692.00;;;;5046331;28;19912;-66
2022/11/20 10:51:17;;;;;;;;;;;14.70;38.50;13.60;100706.00;;;;5062386;28;19945;-66
2022/11/20 10:54:21;;;;;;;;;;;14.80;38.50;13.70;100697.00;;;;5067972;28;20003;-66
2022/11/20 10:56:50;;;;;;;;;;;14.90;38.50;13.70;100690.00;;;;5068983;28;20017;-67
2022/11/20 10:59:34;;;;;;;;;;;15.10;38.50;13.70;100696.00;;;;5049667;28;19916;-66
2022/11/20 11:02:00;;;;;;;;;;;15.00;38.30;13.60;100688.00;;;;5061844;28;19954;-66
2022/11/20 11:04:28;;;;;;;;;;;15.10;38.20;13.60;100688.00;;;;5068365;28;20369;-66
2022/11/20 11:06:55;;;;;;;;;;;15.10;38.10;13.60;100680.00;;;;5073517;28;20370;-66
2022/11/20 11:09:32;;;;;;;;;;;15.10;38.10;13.60;100670.00;;;;5052619;28;19916;-66
2022/11/20 11:11:58;;;;;;;;;;;15.10;38.20;13.60;100668.00;;;;5049518;28;19913;-66
2022/11/20 11:14:24;;;;;;;;;;;15.00;38.10;13.60;100674.00;;;;5067323;28;19920;-66
2022/11/20 11:16:54;;;;;;;;;;;15.00;38.00;13.40;100666.00;;;;5049085;28;19927;-65
2022/11/20 11:19:19;;;;;;;;;;;15.00;37.90;13.40;100670.00;;;;5067280;28;20310;-66
2022/11/20 11:21:53;;;;;;;;;;;15.00;38.00;13.40;100673.00;;;;5068635;28;19912;-66
2022/11/20 11:24:29;;;;;;;;;;;15.00;38.10;13.40;100670.00;;;;5052536;28;19938;-66
2022/11/20 11:27:10;;;;;;;;;;;14.90;38.20;13.50;100678.00;;;;5065567;28;19913;-66
2022/11/20 11:29:36;;;;;;;;;;;14.90;38.30;13.50;100663.00;;;;5053198;28;19958;-66
2022/11/20 11:32:28;;;;;;;;;;;14.90;38.40;13.60;100662.00;;;;5069590;28;19912;-66
2022/11/20 11:35:04;;;;;;;;;;;15.00;38.40;13.70;100660.00;;;;5064510;28;19927;-66
2022/11/20 11:37:34;;;;;;;;;;;15.00;38.40;13.70;100654.00;;;;5057002;28;19916;-66
2022/11/20 11:40:00;;;;;;;;;;;15.00;38.40;13.80;100652.00;;;;5061194;28;20398;-66
2022/11/20 11:42:26;;;;;;;;;;;15.10;38.50;13.90;100640.00;;;;5070906;28;19916;-66
2022/11/20 11:45:07;;;;;;;;;;;15.20;38.50;13.90;100649.00;;;;5038809;28;19919;-66
2022/11/20 11:47:53;;;;;;;;;;;15.20;38.50;13.90;100637.00;;;;5052889;28;19999;-66
2022/11/20 11:50:23;;;;;;;;;;;15.30;38.50;14.00;100636.00;;;;5049612;28;20291;-66
2022/11/20 11:53:11;;;;;;;;;;;15.30;38.50;14.00;100652.00;;;;5050380;28;19912;-66
2022/11/20 11:56:05;;;;;;;;;;;15.40;38.50;14.10;100646.00;;;;5064499;28;19930;-67
2022/11/20 11:58:33;;;;;;;;;;;15.50;38.50;14.10;100642.00;;;;5068503;28;19920;-66
2022/11/20 12:01:07;;;;;;;;;;;15.50;38.50;14.10;100639.00;;;;5065985;28;19974;-66
2022/11/20 12:03:38;;;;;;;;;;;15.50;38.50;14.10;100634.00;;;;5048753;28;19916;-66
2022/11/20 12:06:14;;;;;;;;;;;15.50;38.40;14.10;100638.00;;;;5052153;28;20146;-66